Orlando, FL (32811)

5:44 AM EST on February 07, 2016 (GMT -0500)
Millennia Park/Universal | | Change Station
CLOSE
Current Station
Personal Weather Station
Location: Orlando, FL
Elevation: 85 ft
Nearby Weather Stations
Active Advisory: Lake Wind Advisory

Elev 85 ft 28.49 °N, 81.45 °W | Updated 0 second ago

Mostly Cloudy
Mostly Cloudy
46.4 °F
Feels Like 46 °F
N
2.0
Wind Variable Wind from SSE
Gusts 2.5 mph

Today
High -- | Low -- °F
--% Chance of Precip.
Yesterday
High -- | Low -- °F
Precip. -- in
Pressure 29.98 in
Visibility 10.0 miles
Clouds Overcast 700 ft
Windchill 46 °F
Dew Point 43 °F
Humidity 89%
Rainfall 0.00 in
Snow Depth Not available.
7:10 AM 6:09 PM
Waning Crescent, 2% visible
METAR KORL 070953Z AUTO 32013G22KT 10SM OVC007 08/06 A2996 RMK AO2 CIG 006V010 SLP151 T00780056
Pressure 29.98 in
Visibility 10.0 miles
Clouds Overcast 700 ft
Windchill 46 °F
Dew Point 43 °F
Humidity 89%
Rainfall 0.00 in
Snow Depth Not available.
7:10 AM 6:09 PM
Waning Crescent, 2% visible
METAR KORL 070953Z AUTO 32013G22KT 10SM OVC007 08/06 A2996 RMK AO2 CIG 006V010 SLP151 T00780056

10-Day Weather Forecast

Almanac

Astronomy

Feb. 07, 2016 Rise Set
Actual Time
Civil Twilight
Nautical Twilight
Astronomical Twilight
Moon
Length of Visible Light
Length of Day
Tomorrow will be .
, % of the Moon is Illuminated

Today's Extremes

State Highs State Lows

Community

WunderPhotos

Upload Photos

1,891,171 photos uploaded!

WunderBlog® & News

Nearby

Air Quality

  Air Quality AQ Index Pollutant
Not available.

Snow Depth

Station Depth Elevation

Earthquake Activity

City Distance Mag. Time & Date
Minimum magnitude displayed is 2.5.

Coastal Water Temperatures

Place Temperature

Stations

Nearby Weather Stations

Station Location Temp. Windchill Dew Point Humidity Wind Precip. Elev Updated Type
                   

Watches & Warnings

Lake Wind Advisory
Issued: 3:47 AM EST Feb. 7, 2016 – National Weather Service

... Lake Wind Advisory in effect until 6 PM EST this evening...

The National Weather Service in Melbourne has issued a lake Wind
Advisory... which is in effect until 6 PM EST this evening.

* Winds... northwest winds around 20 mph today with gusts up to 30
to 35 mph.

* Impacts... choppy conditions on Open Lakes and other larger
bodies of water will make operation of small boats potentially
hazardous.

Precautionary/preparedness actions...

A lake Wind Advisory indicates that winds will cause rough chop
on area lakes. Small boats will be especially prone to capsizing.



Weitlich